首页
METAR-TAF:

METAR-TAF

机场 :

洛里昂, 法国

纬度: 47-46N, 经度: 003-27W, 海拔: 52米

当前天气观测

该预报发布于18分钟前的18:30 UTC
风速5节,风向西转西南
温度 24°C
湿度 65%
气压 1020 hPa
能见度10公里或以上
1500米以下无云,无积雨云

METAR: LFRH 221830Z AUTO 25005KT CAVOK 24/17 Q1020 NOSIG

时间: 20:48 (18:48 UTC)

预报

该预报发布于1小时和48分钟前的17:00 UTC
预报有效从22日的 18点(UTC)到 23日的 18点(UTC)
风速10节,风向西
能见度10公里或以上
1500米以下无云,无积雨云
成为
从 22日的 22点(UTC)到 22日的 24点(UTC)
风速10节,风向东北
短暂存在
从 23日的 12点(UTC)到 23日的 18点(UTC)
风速15节,风向东南,有时为25节阵风
能見度: 4000
散云层高于4000英尺, 积雨云.
阵雨
几率 30% :
短暂存在
从 23日的 12点(UTC)到 23日的 18点(UTC)
雷暴, 雨

TAF: LFRH 221700Z 2218/2318 26010KT CAVOK BECMG 2222/2224 04010KT TEMPO 2312/2318 13015G25KT 4000 SHRA SCT040CB PROB30 TEMPO 2312/2318 TSRA

超过4000个机场的气象观测和天气预报(METAR&TAF报告)。

可查询的气象台以黄色和红色小点在地图上表示。

将鼠标移到小点上方,可查看气象台名称。

然后点击查看天气观测和预报。

如需切换地图:点击带黑十字的绿色按钮放大地图;点击带横线的绿色按钮缩小地图;或者点击绿色箭头查看邻近地区的地图。


METAR-TAF: